Time;durP1;ratioP1;P1;durP2;ratioP2;P2;SDS_P1;SDS_P2;PMS_P1;PMS_P2;Temp;Humidity;BMP_temperature;BMP_pressure;BME280_temperature;BME280_humidity;BME280_pressure;Samples;Min_cycle;Max_cycle;Signal;HPM_P1;HPM_P2
2021/03/21 00:00:52;;;;;;;11.98;4.30;;;;;;;;;;5119410;27;20038;-52
2021/03/21 00:03:18;;;;;;;5.95;3.83;;;;;;;;;;5117019;27;20039;-53
2021/03/21 00:05:44;;;;;;;5.65;3.65;;;;;;;;;;5106648;27;20525;-49
2021/03/21 00:08:16;;;;;;;7.43;4.20;;;;;;;;;;5110895;27;20032;-50
2021/03/21 00:10:45;;;;;;;8.60;4.68;;;;;;;;;;5115688;27;20039;-50
2021/03/21 00:13:11;;;;;;;9.82;4.45;;;;;;;;;;5118781;27;20118;-51
2021/03/21 00:15:36;;;;;;;7.10;4.15;;;;;;;;;;5116225;27;20106;-49
2021/03/21 00:18:02;;;;;;;7.90;4.50;;;;;;;;;;5119680;27;20034;-49
2021/03/21 00:20:33;;;;;;;8.35;4.00;;;;;;;;;;5121462;27;20062;-49
2021/03/21 00:22:59;;;;;;;5.75;3.50;;;;;;;;;;5119784;27;20045;-48
2021/03/21 00:25:27;;;;;;;7.50;4.53;;;;;;;;;;5119371;27;20028;-49
2021/03/21 00:27:53;;;;;;;7.80;4.10;;;;;;;;;;5107931;27;20035;-48
2021/03/21 00:30:25;;;;;;;14.07;4.18;;;;;;;;;;5119975;27;20038;-49
2021/03/21 00:32:51;;;;;;;6.68;3.50;;;;;;;;;;5120542;27;20114;-50
2021/03/21 00:35:17;;;;;;;8.27;4.07;;;;;;;;;;5119361;27;20118;-51
2021/03/21 00:37:42;;;;;;;7.90;4.32;;;;;;;;;;5121996;27;20034;-51
2021/03/21 00:40:12;;;;;;;7.78;3.63;;;;;;;;;;5120005;27;20034;-53
2021/03/21 00:42:38;;;;;;;6.85;4.10;;;;;;;;;;5115733;27;20030;-53
2021/03/21 00:45:05;;;;;;;7.63;4.18;;;;;;;;;;5115122;27;20089;-50
2021/03/21 00:47:31;;;;;;;7.43;3.85;;;;;;;;;;5108950;27;20351;-51
2021/03/21 00:49:56;;;;;;;8.13;3.90;;;;;;;;;;5105266;27;20092;-50
2021/03/21 00:52:21;;;;;;;7.35;4.22;;;;;;;;;;5112060;27;20030;-53
2021/03/21 00:54:47;;;;;;;8.52;4.35;;;;;;;;;;5108564;27;20031;-50
2021/03/21 00:57:12;;;;;;;7.60;4.60;;;;;;;;;;5104535;28;20027;-53
2021/03/21 00:59:39;;;;;;;13.50;4.88;;;;;;;;;;5107975;27;20027;-53
2021/03/21 01:02:05;;;;;;;6.90;4.13;;;;;;;;;;5114969;27;20442;-49
2021/03/21 01:04:30;;;;;;;8.13;3.67;;;;;;;;;;5117033;27;20106;-49
2021/03/21 01:06:55;;;;;;;7.35;4.43;;;;;;;;;;5113323;27;20111;-50
2021/03/21 01:09:21;;;;;;;6.95;4.20;;;;;;;;;;5110024;27;20393;-49
2021/03/21 01:11:46;;;;;;;8.80;4.10;;;;;;;;;;5105409;27;20076;-53
2021/03/21 01:14:12;;;;;;;9.40;5.00;;;;;;;;;;5119713;27;20036;-49
2021/03/21 01:16:41;;;;;;;8.75;5.10;;;;;;;;;;5110671;27;20520;-51
2021/03/21 01:19:15;;;;;;;7.53;4.68;;;;;;;;;;5110385;27;20369;-51
2021/03/21 01:21:44;;;;;;;6.80;4.55;;;;;;;;;;5108348;27;20019;-53
2021/03/21 01:24:14;;;;;;;6.72;4.65;;;;;;;;;;5111294;27;20383;-53
2021/03/21 01:26:39;;;;;;;8.63;4.97;;;;;;;;;;5107723;27;20042;-53
2021/03/21 01:29:06;;;;;;;8.27;4.70;;;;;;;;;;5110227;27;20949;-48
2021/03/21 01:31:31;;;;;;;8.55;5.13;;;;;;;;;;5110473;27;20039;-53
2021/03/21 01:33:57;;;;;;;7.55;4.45;;;;;;;;;;5111188;27;20046;-52
2021/03/21 01:36:33;;;;;;;7.32;4.72;;;;;;;;;;5101064;27;20393;-53
2021/03/21 01:39:05;;;;;;;8.95;4.75;;;;;;;;;;5119510;27;20027;-50
2021/03/21 01:41:34;;;;;;;9.68;5.03;;;;;;;;;;5114115;27;20042;-52
2021/03/21 01:44:01;;;;;;;11.30;5.22;;;;;;;;;;5110457;27;20036;-52
2021/03/21 01:46:47;;;;;;;7.07;4.55;;;;;;;;;;5111389;27;20123;-50
2021/03/21 01:49:18;;;;;;;6.88;4.72;;;;;;;;;;5113336;27;20035;-53
2021/03/21 01:51:44;;;;;;;;;;;;;;;;;;5070487;28;20031;-49
2021/03/21 01:54:13;;;;;;;7.88;4.95;;;;;;;;;;5110202;28;20367;-53
2021/03/21 01:56:39;;;;;;;10.57;5.00;;;;;;;;;;5106836;28;20038;-51
2021/03/21 01:59:10;;;;;;;11.18;5.07;;;;;;;;;;5111327;27;20049;-51
2021/03/21 02:01:35;;;;;;;12.85;5.32;;;;;;;;;;5112421;27;20039;-49
2021/03/21 02:04:02;;;;;;;8.77;5.28;;;;;;;;;;5110327;27;20444;-47
2021/03/21 02:06:36;;;;;;;9.00;4.63;;;;;;;;;;5109590;28;20138;-48
2021/03/21 02:09:05;;;;;;;7.15;5.00;;;;;;;;;;5106472;27;20036;-48
2021/03/21 02:12:08;;;;;;;11.82;5.72;;;;;;;;;;5090144;28;20099;-50
2021/03/21 02:15:01;;;;;;;9.93;4.78;;;;;;;;;;5109455;27;20027;-50
2021/03/21 02:17:36;;;;;;;15.88;6.22;;;;;;;;;;5110967;27;20051;-50
2021/03/21 02:20:26;;;;;;;8.43;4.88;;;;;;;;;;5109906;28;20381;-52
2021/03/21 02:23:04;;;;;;;9.18;4.63;;;;;;;;;;5109736;28;20034;-52
2021/03/21 02:25:50;;;;;;;9.30;5.00;;;;;;;;;;5112827;27;20099;-50
2021/03/21 02:28:36;;;;;;;11.18;5.28;;;;;;;;;;5108765;27;20063;-51
2021/03/21 02:31:27;;;;;;;12.82;4.93;;;;;;;;;;5115636;27;20035;-50
2021/03/21 02:33:55;;;;;;;7.70;5.25;;;;;;;;;;5082430;28;20035;-52
2021/03/21 02:36:28;;;;;;;7.40;4.57;;;;;;;;;;5109711;28;20043;-49
2021/03/21 02:39:01;;;;;;;7.88;5.15;;;;;;;;;;5110178;28;20066;-48
2021/03/21 02:41:32;;;;;;;8.20;5.50;;;;;;;;;;5109152;28;20583;-50
2021/03/21 02:44:06;;;;;;;7.90;4.68;;;;;;;;;;5109934;28;20039;-49
2021/03/21 02:46:36;;;;;;;12.68;5.40;;;;;;;;;;5108380;28;20130;-50
2021/03/21 02:49:25;;;;;;;6.93;4.68;;;;;;;;;;5109545;28;20114;-50
2021/03/21 02:52:04;;;;;;;9.70;4.97;;;;;;;;;;5099726;28;20077;-49
2021/03/21 02:54:43;;;;;;;8.10;4.80;;;;;;;;;;5109372;28;20377;-48
2021/03/21 02:57:12;;;;;;;7.75;4.97;;;;;;;;;;5118444;28;20085;-47
2021/03/21 02:59:44;;;;;;;7.82;4.85;;;;;;;;;;5110472;28;20456;-50
2021/03/21 03:02:27;;;;;;;7.20;5.05;;;;;;;;;;5108750;28;20433;-51
2021/03/21 03:05:06;;;;;;;8.25;5.15;;;;;;;;;;5102467;28;20349;-51
2021/03/21 03:07:38;;;;;;;9.20;4.82;;;;;;;;;;5114183;28;20066;-50
2021/03/21 03:10:13;;;;;;;8.85;5.57;;;;;;;;;;5108075;28;20051;-50
2021/03/21 03:12:48;;;;;;;11.68;5.35;;;;;;;;;;5106354;28;20114;-53
2021/03/21 03:15:17;;;;;;;10.15;5.28;;;;;;;;;;5109151;28;20049;-48
2021/03/21 03:17:52;;;;;;;9.82;5.20;;;;;;;;;;5099568;28;20033;-52
2021/03/21 03:20:40;;;;;;;7.72;5.10;;;;;;;;;;5109401;28;20835;-51
2021/03/21 03:23:29;;;;;;;8.05;5.18;;;;;;;;;;5112264;28;20035;-51
2021/03/21 03:26:14;;;;;;;9.45;4.65;;;;;;;;;;5108334;28;20538;-52
2021/03/21 03:28:59;;;;;;;8.88;5.10;;;;;;;;;;5095399;28;20046;-50
2021/03/21 03:31:31;;;;;;;11.18;5.40;;;;;;;;;;5111286;28;20031;-49
2021/03/21 03:33:56;;;;;;;;;;;;;;;;;;5115324;28;20096;-50
2021/03/21 03:36:21;;;;;;;7.60;4.47;;;;;;;;;;5109046;28;20325;-51
2021/03/21 03:38:50;;;;;;;13.15;5.35;;;;;;;;;;5111048;27;20023;-51
2021/03/21 03:41:27;;;;;;;7.65;5.00;;;;;;;;;;5112877;27;20028;-48
2021/03/21 03:44:19;;;;;;;7.85;4.95;;;;;;;;;;5111891;27;20376;-49
2021/03/21 03:46:53;;;;;;;9.82;5.72;;;;;;;;;;5110534;27;20039;-47
2021/03/21 03:49:40;;;;;;;9.20;5.32;;;;;;;;;;5113388;27;20043;-49
2021/03/21 03:52:18;;;;;;;12.80;5.43;;;;;;;;;;5104642;27;20032;-52
2021/03/21 03:55:08;;;;;;;8.95;4.97;;;;;;;;;;5109842;27;20026;-52
2021/03/21 03:57:41;;;;;;;9.95;5.40;;;;;;;;;;5112142;27;20098;-50
2021/03/21 04:00:16;;;;;;;9.98;4.90;;;;;;;;;;5112223;27;20031;-51
2021/03/21 04:03:06;;;;;;;11.20;5.72;;;;;;;;;;5110024;27;20023;-51
2021/03/21 04:05:35;;;;;;;7.53;4.93;;;;;;;;;;5099592;28;20095;-50
2021/03/21 04:08:19;;;;;;;8.93;5.20;;;;;;;;;;5113270;27;20129;-50
2021/03/21 04:10:53;;;;;;;7.20;4.55;;;;;;;;;;5110253;27;20032;-52
2021/03/21 04:13:28;;;;;;;10.13;5.05;;;;;;;;;;5112140;27;20071;-51
2021/03/21 04:15:56;;;;;;;8.13;3.92;;;;;;;;;;5112967;27;20039;-54
2021/03/21 04:18:35;;;;;;;8.88;4.75;;;;;;;;;;5111667;27;20023;-49
2021/03/21 04:21:11;;;;;;;7.75;4.68;;;;;;;;;;5110953;27;20028;-50
2021/03/21 04:23:47;;;;;;;11.35;5.15;;;;;;;;;;5113666;27;20027;-51
2021/03/21 04:26:18;;;;;;;9.75;5.40;;;;;;;;;;5111502;27;20036;-53
2021/03/21 04:28:43;;;;;;;;;;;;;;;;;;5107963;27;20035;-50
2021/03/21 04:31:13;;;;;;;8.25;5.55;;;;;;;;;;5112781;27;19945;-52
2021/03/21 04:33:44;;;;;;;8.32;4.88;;;;;;;;;;5109145;27;20362;-51
2021/03/21 04:36:15;;;;;;;7.90;4.95;;;;;;;;;;5114722;27;20392;-50
2021/03/21 04:38:45;;;;;;;6.22;4.72;;;;;;;;;;5112471;27;20027;-51
2021/03/21 04:41:18;;;;;;;6.30;4.50;;;;;;;;;;5112412;27;20086;-49
2021/03/21 04:43:48;;;;;;;11.25;4.68;;;;;;;;;;5096274;28;20045;-51
2021/03/21 04:46:20;;;;;;;10.35;5.55;;;;;;;;;;5110502;27;20087;-53
2021/03/21 04:48:46;;;;;;;12.00;5.22;;;;;;;;;;5111846;27;20122;-50
2021/03/21 04:51:26;;;;;;;10.18;5.50;;;;;;;;;;5110895;27;20157;-51
2021/03/21 04:54:04;;;;;;;9.63;5.80;;;;;;;;;;5102123;27;20035;-51
2021/03/21 04:56:34;;;;;;;7.90;5.28;;;;;;;;;;5111314;27;20113;-51
2021/03/21 04:59:14;;;;;;;6.95;5.20;;;;;;;;;;5111201;27;20046;-51
2021/03/21 05:01:55;;;;;;;11.00;4.93;;;;;;;;;;5108411;28;20031;-51
2021/03/21 05:04:27;;;;;;;8.50;5.72;;;;;;;;;;5110783;27;20084;-49
2021/03/21 05:06:59;;;;;;;8.57;4.85;;;;;;;;;;5112058;27;20038;-50
2021/03/21 05:09:42;;;;;;;8.23;5.43;;;;;;;;;;5110715;27;20117;-50
2021/03/21 05:12:16;;;;;;;8.32;5.30;;;;;;;;;;5110391;27;20050;-52
2021/03/21 05:14:52;;;;;;;7.63;5.28;;;;;;;;;;5108118;27;20349;-50
2021/03/21 05:17:42;;;;;;;8.00;5.47;;;;;;;;;;5113281;27;20024;-49
2021/03/21 05:20:41;;;;;;;11.10;5.07;;;;;;;;;;5099344;27;20475;-52
2021/03/21 05:23:32;;;;;;;12.30;5.63;;;;;;;;;;5111846;27;20035;-48
2021/03/21 05:26:15;;;;;;;9.80;5.88;;;;;;;;;;5103072;27;20461;-51
2021/03/21 05:29:03;;;;;;;10.07;5.78;;;;;;;;;;5107686;27;20035;-51
2021/03/21 05:31:29;;;;;;;12.10;6.63;;;;;;;;;;5110191;27;20036;-48
2021/03/21 05:33:55;;;;;;;8.52;6.47;;;;;;;;;;5103271;27;20091;-52
2021/03/21 05:36:49;;;;;;;8.77;6.30;;;;;;;;;;5111300;27;20043;-48
2021/03/21 05:39:46;;;;;;;7.63;5.85;;;;;;;;;;5111830;27;20028;-50
2021/03/21 05:42:39;;;;;;;10.50;6.15;;;;;;;;;;5110965;27;20543;-50
2021/03/21 05:45:50;;;;;;;9.40;5.57;;;;;;;;;;5109260;27;20051;-48
2021/03/21 05:48:44;;;;;;;8.50;6.10;;;;;;;;;;5109359;27;20030;-50
2021/03/21 05:51:33;;;;;;;9.90;5.38;;;;;;;;;;5110705;27;20122;-48
2021/03/21 05:54:29;;;;;;;13.43;6.47;;;;;;;;;;5110345;28;20034;-54
2021/03/21 05:57:13;;;;;;;12.90;7.22;;;;;;;;;;5102875;28;20110;-50
2021/03/21 05:59:58;;;;;;;8.60;6.00;;;;;;;;;;5111040;27;20898;-50
2021/03/21 06:02:47;;;;;;;11.63;7.45;;;;;;;;;;5113000;27;20036;-51
2021/03/21 06:05:50;;;;;;;11.75;8.48;;;;;;;;;;5107056;27;20031;-49
2021/03/21 06:08:30;;;;;;;11.00;6.90;;;;;;;;;;5109773;28;20771;-47
2021/03/21 06:10:59;;;;;;;10.57;6.70;;;;;;;;;;5097500;28;20038;-53
2021/03/21 06:13:43;;;;;;;10.82;6.85;;;;;;;;;;5109145;28;20035;-50
2021/03/21 06:16:20;;;;;;;10.27;6.82;;;;;;;;;;5112552;27;20031;-53
2021/03/21 06:19:04;;;;;;;9.43;6.15;;;;;;;;;;5108476;28;20038;-53
2021/03/21 06:21:59;;;;;;;11.43;7.78;;;;;;;;;;5109274;28;20035;-50
2021/03/21 06:24:51;;;;;;;9.80;6.80;;;;;;;;;;5111162;27;20073;-48
2021/03/21 06:27:54;;;;;;;9.88;6.78;;;;;;;;;;5111174;27;20027;-49
2021/03/21 06:30:21;;;;;;;9.55;6.72;;;;;;;;;;5108664;28;20043;-52
2021/03/21 06:32:46;;;;;;;11.07;7.57;;;;;;;;;;5109921;28;20114;-50
2021/03/21 06:35:49;;;;;;;13.98;7.82;;;;;;;;;;5110582;27;20140;-51
2021/03/21 06:38:38;;;;;;;12.25;8.70;;;;;;;;;;5102922;27;20560;-47
2021/03/21 06:41:10;;;;;;;10.73;8.20;;;;;;;;;;5113163;28;20070;-52
2021/03/21 06:43:54;;;;;;;;;;;;;;;;;;5109533;28;20391;-49
2021/03/21 06:46:43;;;;;;;11.95;8.80;;;;;;;;;;5107530;28;19991;-52
2021/03/21 06:49:40;;;;;;;12.65;8.98;;;;;;;;;;5109642;28;20032;-51
2021/03/21 06:52:25;;;;;;;12.15;8.40;;;;;;;;;;5103061;28;20023;-48
2021/03/21 06:54:56;;;;;;;10.35;9.05;;;;;;;;;;5058865;28;20054;-52
2021/03/21 06:57:34;;;;;;;10.98;8.90;;;;;;;;;;5109272;28;20355;-50
2021/03/21 07:00:02;;;;;;;13.10;9.60;;;;;;;;;;5109689;28;20606;-47
2021/03/21 07:03:05;;;;;;;15.05;9.73;;;;;;;;;;5099120;28;20144;-50
2021/03/21 07:06:04;;;;;;;14.25;10.55;;;;;;;;;;5106893;28;20365;-51
2021/03/21 07:08:57;;;;;;;15.15;12.52;;;;;;;;;;5104044;28;20031;-49
2021/03/21 07:11:22;;;;;;;17.25;11.38;;;;;;;;;;5105736;28;20027;-48
2021/03/21 07:13:53;;;;;;;12.63;11.27;;;;;;;;;;5106877;27;20093;-54
2021/03/21 07:16:25;;;;;;;15.27;11.40;;;;;;;;;;5112508;27;20122;-54
2021/03/21 07:19:18;;;;;;;13.77;11.18;;;;;;;;;;5104878;27;20035;-51
2021/03/21 07:21:49;;;;;;;13.50;11.02;;;;;;;;;;5110878;27;20428;-52
2021/03/21 07:24:27;;;;;;;;;;;;;;;;;;5113256;27;20448;-50
2021/03/21 07:27:22;;;;;;;12.65;10.50;;;;;;;;;;5106876;27;20053;-52
2021/03/21 07:30:02;;;;;;;13.90;11.10;;;;;;;;;;5099924;27;20368;-49
2021/03/21 07:32:55;;;;;;;12.57;10.07;;;;;;;;;;5110534;27;20112;-50
2021/03/21 07:36:05;;;;;;;12.43;9.80;;;;;;;;;;5113834;27;20080;-52
2021/03/21 07:38:44;;;;;;;10.52;9.07;;;;;;;;;;5034973;28;20184;-50
2021/03/21 07:41:20;;;;;;;10.75;9.07;;;;;;;;;;5113198;27;20043;-53
2021/03/21 07:43:58;;;;;;;10.40;8.93;;;;;;;;;;5100453;27;20096;-53
2021/03/21 07:46:38;;;;;;;12.00;8.90;;;;;;;;;;5113730;27;20114;-54
2021/03/21 07:49:46;;;;;;;10.33;8.60;;;;;;;;;;5098877;28;20383;-48
2021/03/21 07:52:33;;;;;;;9.23;7.32;;;;;;;;;;5105723;27;20287;-52
2021/03/21 07:55:05;;;;;;;8.82;6.68;;;;;;;;;;5112367;27;20095;-53
2021/03/21 07:57:40;;;;;;;10.25;7.43;;;;;;;;;;5112489;27;20023;-52
2021/03/21 08:00:08;;;;;;;8.80;7.03;;;;;;;;;;5111597;27;20054;-52
2021/03/21 08:02:33;;;;;;;7.97;7.18;;;;;;;;;;5110643;27;20762;-53
2021/03/21 08:05:23;;;;;;;9.82;7.05;;;;;;;;;;5112317;27;20040;-56
2021/03/21 08:07:52;;;;;;;8.98;6.95;;;;;;;;;;5102370;27;20089;-50
2021/03/21 08:10:24;;;;;;;10.20;7.43;;;;;;;;;;5100122;27;20020;-52
2021/03/21 08:12:57;;;;;;;9.65;6.35;;;;;;;;;;5117896;27;20500;-55
2021/03/21 08:15:26;;;;;;;9.32;6.65;;;;;;;;;;5112410;27;20047;-51
2021/03/21 08:18:01;;;;;;;9.55;6.65;;;;;;;;;;5112800;27;20045;-54
2021/03/21 08:20:35;;;;;;;12.13;7.22;;;;;;;;;;5112201;27;20023;-50
2021/03/21 08:23:31;;;;;;;8.60;6.43;;;;;;;;;;5117358;27;20069;-53
2021/03/21 08:26:03;;;;;;;8.82;6.65;;;;;;;;;;5112312;27;20043;-52
2021/03/21 08:28:37;;;;;;;9.15;6.72;;;;;;;;;;5112861;27;20108;-52
2021/03/21 08:31:11;;;;;;;8.52;6.55;;;;;;;;;;5114335;27;20406;-52
2021/03/21 08:33:42;;;;;;;10.23;6.80;;;;;;;;;;5107874;27;20028;-55
2021/03/21 08:36:27;;;;;;;7.93;6.22;;;;;;;;;;5111464;27;20036;-55
2021/03/21 08:39:01;;;;;;;7.82;5.93;;;;;;;;;;5110753;28;20410;-53
2021/03/21 08:41:29;;;;;;;7.40;5.18;;;;;;;;;;5112353;27;20024;-51
2021/03/21 08:44:04;;;;;;;7.22;5.28;;;;;;;;;;5116613;27;20031;-52
2021/03/21 08:46:30;;;;;;;6.32;5.00;;;;;;;;;;5116270;27;20412;-51
2021/03/21 08:49:15;;;;;;;7.03;5.68;;;;;;;;;;5115996;27;20441;-54
2021/03/21 08:51:42;;;;;;;11.73;6.10;;;;;;;;;;5109286;27;20046;-53
2021/03/21 08:54:07;;;;;;;8.13;5.43;;;;;;;;;;5112054;27;20032;-52
2021/03/21 08:56:39;;;;;;;7.55;6.30;;;;;;;;;;5106217;27;20074;-54
2021/03/21 08:59:31;;;;;;;6.60;5.32;;;;;;;;;;5106820;27;20023;-53
2021/03/21 09:02:11;;;;;;;7.57;5.75;;;;;;;;;;5112604;27;20058;-49
2021/03/21 09:04:40;;;;;;;7.88;5.20;;;;;;;;;;5123443;27;20051;-56
2021/03/21 09:07:30;;;;;;;6.20;4.82;;;;;;;;;;5115409;27;20035;-51
2021/03/21 09:10:11;;;;;;;8.07;5.90;;;;;;;;;;5114953;27;20417;-54
2021/03/21 09:12:39;;;;;;;7.53;5.65;;;;;;;;;;5119854;27;20059;-54
2021/03/21 09:15:20;;;;;;;7.05;5.70;;;;;;;;;;5118761;27;20031;-50
2021/03/21 09:18:18;;;;;;;7.45;6.07;;;;;;;;;;5119118;27;20031;-51
2021/03/21 09:20:58;;;;;;;8.48;4.75;;;;;;;;;;5090375;27;20108;-49
2021/03/21 09:23:46;;;;;;;7.15;5.40;;;;;;;;;;5114117;27;20239;-53
2021/03/21 09:26:11;;;;;;;5.43;4.47;;;;;;;;;;5119751;27;20027;-52
2021/03/21 09:28:38;;;;;;;6.05;4.22;;;;;;;;;;5115522;27;20062;-55
2021/03/21 09:31:09;;;;;;;5.82;3.75;;;;;;;;;;5114442;27;20028;-54
2021/03/21 09:33:40;;;;;;;4.88;3.05;;;;;;;;;;5115583;27;20023;-54
2021/03/21 09:36:14;;;;;;;5.83;3.60;;;;;;;;;;5117772;27;20106;-54
2021/03/21 09:38:57;;;;;;;6.05;3.90;;;;;;;;;;5091332;28;20040;-54
2021/03/21 09:41:23;;;;;;;5.15;3.60;;;;;;;;;;5118457;27;20185;-53
2021/03/21 09:43:49;;;;;;;3.80;2.70;;;;;;;;;;5114811;27;20133;-56
2021/03/21 09:46:47;;;;;;;6.40;3.17;;;;;;;;;;5121043;27;20057;-53
2021/03/21 09:49:34;;;;;;;4.03;2.75;;;;;;;;;;5116765;27;20039;-53
2021/03/21 09:52:12;;;;;;;4.25;2.92;;;;;;;;;;5116092;27;20039;-54
2021/03/21 09:54:47;;;;;;;3.75;2.67;;;;;;;;;;5119682;27;20536;-52
2021/03/21 09:57:18;;;;;;;4.72;2.88;;;;;;;;;;5118358;27;20043;-53
2021/03/21 10:00:00;;;;;;;4.68;3.03;;;;;;;;;;5112948;27;20023;-52
2021/03/21 10:02:47;;;;;;;4.47;3.03;;;;;;;;;;5117439;27;20074;-54
2021/03/21 10:05:31;;;;;;;4.85;2.90;;;;;;;;;;5117795;27;20031;-54
2021/03/21 10:07:59;;;;;;;4.85;3.42;;;;;;;;;;5114076;27;20046;-54
2021/03/21 10:10:32;;;;;;;4.90;3.17;;;;;;;;;;5118049;27;20038;-58
2021/03/21 10:12:58;;;;;;;4.35;3.08;;;;;;;;;;5113680;27;20468;-52
2021/03/21 10:15:27;;;;;;;4.85;3.10;;;;;;;;;;5122289;27;20045;-54
2021/03/21 10:17:55;;;;;;;4.28;2.92;;;;;;;;;;5122706;27;20126;-54
2021/03/21 10:20:41;;;;;;;4.03;2.90;;;;;;;;;;5113341;27;20358;-53
2021/03/21 10:23:07;;;;;;;5.20;2.97;;;;;;;;;;5116508;27;20396;-54
2021/03/21 10:25:38;;;;;;;5.10;3.17;;;;;;;;;;5119154;27;20036;-55
2021/03/21 10:28:39;;;;;;;5.38;3.22;;;;;;;;;;5114396;27;20023;-54
2021/03/21 10:31:22;;;;;;;4.47;3.10;;;;;;;;;;5098486;28;20034;-54
2021/03/21 10:33:50;;;;;;;5.75;3.33;;;;;;;;;;5113453;27;20043;-52
2021/03/21 10:36:37;;;;;;;5.32;3.63;;;;;;;;;;5113519;27;20094;-53
2021/03/21 10:39:04;;;;;;;4.90;3.35;;;;;;;;;;5115409;27;20357;-53
2021/03/21 10:41:53;;;;;;;5.78;4.00;;;;;;;;;;5117346;28;20122;-51
2021/03/21 10:44:21;;;;;;;5.95;4.03;;;;;;;;;;5112901;28;20049;-52
2021/03/21 10:46:52;;;;;;;5.20;3.25;;;;;;;;;;5117736;28;20037;-52
2021/03/21 10:49:36;;;;;;;;;;;;;;;;;;5112684;27;20063;-52
2021/03/21 10:52:27;;;;;;;6.15;3.60;;;;;;;;;;5119870;27;20284;-53
2021/03/21 10:55:11;;;;;;;7.35;3.47;;;;;;;;;;5117801;27;20377;-49
2021/03/21 10:57:44;;;;;;;6.40;3.95;;;;;;;;;;5123300;27;20033;-49
2021/03/21 11:00:15;;;;;;;4.78;3.80;;;;;;;;;;5120325;27;20044;-52
2021/03/21 11:02:47;;;;;;;5.60;4.10;;;;;;;;;;5122823;27;20051;-53
2021/03/21 11:05:32;;;;;;;6.82;3.55;;;;;;;;;;5100305;27;20082;-49
2021/03/21 11:08:00;;;;;;;4.70;3.30;;;;;;;;;;5102165;27;20027;-51
2021/03/21 11:10:33;;;;;;;4.72;3.30;;;;;;;;;;5119986;27;20031;-53
2021/03/21 11:12:58;;;;;;;11.02;3.42;;;;;;;;;;5118292;27;20061;-53
2021/03/21 11:15:44;;;;;;;7.55;3.38;;;;;;;;;;5122370;27;20035;-52
2021/03/21 11:18:21;;;;;;;5.30;3.33;;;;;;;;;;5114736;27;20055;-50
2021/03/21 11:20:47;;;;;;;4.95;2.40;;;;;;;;;;5116331;27;20067;-54
2021/03/21 11:23:20;;;;;;;3.22;2.10;;;;;;;;;;5120468;27;20117;-50
2021/03/21 11:25:45;;;;;;;4.53;2.25;;;;;;;;;;5114215;27;20368;-52
2021/03/21 11:28:27;;;;;;;4.78;2.20;;;;;;;;;;5122539;27;20027;-54
2021/03/21 11:30:57;;;;;;;4.78;2.30;;;;;;;;;;5111942;27;20024;-53
2021/03/21 11:33:45;;;;;;;4.00;2.10;;;;;;;;;;5119488;27;20134;-54
2021/03/21 11:36:16;;;;;;;4.35;2.20;;;;;;;;;;5120466;27;20040;-55
2021/03/21 11:38:42;;;;;;;3.25;2.10;;;;;;;;;;5119512;27;20034;-53
2021/03/21 11:41:30;;;;;;;5.13;2.40;;;;;;;;;;5117200;27;20035;-55
2021/03/21 11:44:17;;;;;;;3.30;2.10;;;;;;;;;;5105999;27;20046;-54
2021/03/21 11:46:43;;;;;;;4.22;2.30;;;;;;;;;;5116252;27;20130;-54
2021/03/21 11:49:09;;;;;;;3.28;2.00;;;;;;;;;;5116267;27;20495;-54
2021/03/21 11:51:35;;;;;;;6.03;2.63;;;;;;;;;;5113584;27;20027;-53
2021/03/21 11:54:00;;;;;;;7.05;3.10;;;;;;;;;;5117602;27;20042;-53
2021/03/21 11:57:16;;;;;;;3.47;2.17;;;;;;;;;;5122703;27;20019;-52
2021/03/21 11:59:48;;;;;;;4.68;2.20;;;;;;;;;;5067097;27;20047;-54
2021/03/21 12:02:39;;;;;;;;;;;;;;;;;;5113807;27;20081;-54
2021/03/21 12:05:12;;;;;;;5.13;2.13;;;;;;;;;;5088616;27;19911;-55
2021/03/21 12:07:38;;;;;;;3.85;2.25;;;;;;;;;;5120479;27;20419;-54
2021/03/21 12:10:04;;;;;;;4.00;2.28;;;;;;;;;;5122068;27;20119;-51
2021/03/21 12:12:41;;;;;;;4.78;2.08;;;;;;;;;;5129209;27;20117;-55
2021/03/21 12:15:26;;;;;;;3.90;2.10;;;;;;;;;;5116010;27;20034;-53
2021/03/21 12:18:05;;;;;;;4.88;2.38;;;;;;;;;;5108549;27;20019;-51
2021/03/21 12:20:31;;;;;;;3.78;1.83;;;;;;;;;;5117915;27;20537;-55
2021/03/21 12:22:57;;;;;;;4.57;2.67;;;;;;;;;;5113700;27;20071;-55
2021/03/21 12:25:31;;;;;;;4.10;2.35;;;;;;;;;;5114762;27;20035;-55
2021/03/21 12:28:22;;;;;;;5.10;1.95;;;;;;;;;;5111729;27;20063;-56
2021/03/21 12:30:51;;;;;;;4.25;2.38;;;;;;;;;;5113603;27;20070;-52
2021/03/21 12:33:26;;;;;;;4.55;2.58;;;;;;;;;;5125168;27;20095;-55
2021/03/21 12:35:53;;;;;;;4.50;2.28;;;;;;;;;;5123633;27;20349;-54
2021/03/21 12:38:26;;;;;;;4.32;2.58;;;;;;;;;;5110789;27;20082;-51
2021/03/21 12:40:52;;;;;;;6.25;2.63;;;;;;;;;;5112503;27;20042;-49
2021/03/21 12:43:28;;;;;;;3.90;2.38;;;;;;;;;;5107747;27;20027;-54
2021/03/21 12:46:01;;;;;;;3.55;2.25;;;;;;;;;;5113042;27;20023;-54
2021/03/21 12:48:27;;;;;;;4.50;2.25;;;;;;;;;;5111755;27;20028;-52
2021/03/21 12:50:53;;;;;;;4.50;2.00;;;;;;;;;;5111611;27;20036;-54
2021/03/21 12:53:27;;;;;;;5.93;2.30;;;;;;;;;;5093396;27;20024;-52
2021/03/21 12:55:55;;;;;;;3.05;1.77;;;;;;;;;;5103772;27;20040;-49
2021/03/21 12:58:21;;;;;;;5.15;2.17;;;;;;;;;;5109181;27;20051;-53
2021/03/21 13:00:47;;;;;;;3.58;2.00;;;;;;;;;;5115705;27;20410;-55
2021/03/21 13:03:28;;;;;;;3.67;1.98;;;;;;;;;;5104595;27;20456;-54
2021/03/21 13:05:53;;;;;;;9.35;2.13;;;;;;;;;;5099033;27;20051;-56
2021/03/21 13:08:19;;;;;;;3.08;1.40;;;;;;;;;;5106613;27;20856;-54
2021/03/21 13:10:45;;;;;;;4.38;1.75;;;;;;;;;;5107556;27;20028;-54
2021/03/21 13:13:11;;;;;;;5.90;1.95;;;;;;;;;;5109665;27;20053;-53
2021/03/21 13:15:37;;;;;;;3.15;1.55;;;;;;;;;;5109909;28;20028;-55
2021/03/21 13:18:03;;;;;;;3.67;1.67;;;;;;;;;;5106795;27;20035;-57
2021/03/21 13:20:29;;;;;;;4.75;1.80;;;;;;;;;;5110157;27;20034;-52
2021/03/21 13:22:54;;;;;;;3.92;1.45;;;;;;;;;;5108902;27;20044;-54
2021/03/21 13:25:24;;;;;;;3.78;1.40;;;;;;;;;;5109807;27;20475;-55
2021/03/21 13:27:55;;;;;;;3.40;1.55;;;;;;;;;;5111535;27;20040;-52
2021/03/21 13:30:23;;;;;;;7.82;1.88;;;;;;;;;;5110716;27;20028;-50
2021/03/21 13:32:49;;;;;;;5.40;2.25;;;;;;;;;;5110986;27;20404;-53
2021/03/21 13:35:14;;;;;;;4.90;2.13;;;;;;;;;;5107380;27;20059;-56
2021/03/21 13:37:40;;;;;;;7.18;1.70;;;;;;;;;;5107345;27;20027;-56
2021/03/21 13:40:07;;;;;;;6.30;1.83;;;;;;;;;;5109995;27;20500;-55
2021/03/21 13:42:32;;;;;;;4.78;1.23;;;;;;;;;;5110340;27;20055;-56
2021/03/21 13:45:00;;;;;;;6.43;1.63;;;;;;;;;;5110700;27;20044;-53
2021/03/21 13:47:26;;;;;;;6.57;2.10;;;;;;;;;;5111002;27;20459;-54
2021/03/21 13:49:51;;;;;;;6.28;2.40;;;;;;;;;;5105067;27;20032;-54
2021/03/21 13:52:17;;;;;;;3.72;1.55;;;;;;;;;;5099246;28;20118;-51
2021/03/21 13:54:42;;;;;;;4.22;1.70;;;;;;;;;;5109470;27;20035;-56
2021/03/21 13:57:07;;;;;;;6.20;2.35;;;;;;;;;;5110468;27;20411;-53
2021/03/21 13:59:33;;;;;;;5.25;2.10;;;;;;;;;;5112195;27;20546;-53
2021/03/21 14:01:58;;;;;;;6.20;1.88;;;;;;;;;;5105421;27;20111;-53
2021/03/21 14:04:24;;;;;;;5.18;1.70;;;;;;;;;;5095019;28;20159;-53
2021/03/21 14:06:49;;;;;;;6.15;2.30;;;;;;;;;;5109944;27;20027;-54
2021/03/21 14:09:16;;;;;;;4.55;1.90;;;;;;;;;;5106416;28;20671;-55
2021/03/21 14:11:41;;;;;;;10.90;2.45;;;;;;;;;;5108293;28;20349;-53
2021/03/21 14:14:06;;;;;;;6.35;2.25;;;;;;;;;;5110402;28;20031;-52
2021/03/21 14:16:32;;;;;;;6.88;2.55;;;;;;;;;;5102868;27;20039;-54
2021/03/21 14:18:57;;;;;;;7.72;3.22;;;;;;;;;;5101803;28;20398;-54
2021/03/21 14:21:22;;;;;;;8.23;1.90;;;;;;;;;;5104413;27;20039;-53
2021/03/21 14:23:48;;;;;;;12.30;2.55;;;;;;;;;;5107447;27;20046;-51
2021/03/21 14:26:14;;;;;;;7.10;2.63;;;;;;;;;;5104192;27;20651;-55
2021/03/21 14:28:39;;;;;;;7.20;2.53;;;;;;;;;;5107389;28;20929;-54
2021/03/21 14:31:07;;;;;;;7.65;2.40;;;;;;;;;;5106717;28;20074;-55
2021/03/21 14:33:34;;;;;;;9.10;2.40;;;;;;;;;;5100463;27;20036;-48
2021/03/21 14:36:00;;;;;;;7.05;2.40;;;;;;;;;;5112772;27;20035;-49
2021/03/21 14:38:26;;;;;;;12.60;2.53;;;;;;;;;;5106861;27;20701;-53
2021/03/21 14:40:53;;;;;;;8.73;2.40;;;;;;;;;;5103460;27;20032;-53
2021/03/21 14:43:20;;;;;;;13.85;3.38;;;;;;;;;;5107362;28;20095;-53
2021/03/21 14:45:46;;;;;;;10.73;3.60;;;;;;;;;;5111419;28;20036;-52
2021/03/21 14:48:12;;;;;;;12.48;3.33;;;;;;;;;;5108953;28;20364;-51
2021/03/21 14:50:37;;;;;;;8.27;2.88;;;;;;;;;;5094341;28;20104;-53
2021/03/21 14:53:03;;;;;;;10.43;2.95;;;;;;;;;;5107673;28;20126;-51
2021/03/21 14:55:37;;;;;;;8.50;3.03;;;;;;;;;;5107597;28;20039;-53
2021/03/21 14:58:02;;;;;;;12.32;2.90;;;;;;;;;;5105822;28;20039;-51
2021/03/21 15:00:31;;;;;;;10.25;2.90;;;;;;;;;;5107068;28;20395;-54
2021/03/21 15:02:57;;;;;;;12.27;3.22;;;;;;;;;;5109616;28;20059;-51
2021/03/21 15:05:24;;;;;;;11.02;2.95;;;;;;;;;;5106402;28;20412;-51
2021/03/21 15:07:49;;;;;;;7.63;2.67;;;;;;;;;;5092876;28;20052;-54
2021/03/21 15:10:16;;;;;;;11.52;3.25;;;;;;;;;;5106990;28;20418;-52
2021/03/21 15:12:42;;;;;;;11.20;3.08;;;;;;;;;;5106904;28;20667;-54
2021/03/21 15:15:20;;;;;;;9.15;3.05;;;;;;;;;;5105844;28;20046;-49
2021/03/21 15:17:46;;;;;;;11.13;3.13;;;;;;;;;;5105826;28;20472;-52
2021/03/21 15:20:12;;;;;;;10.73;3.55;;;;;;;;;;5107545;28;20031;-52
2021/03/21 15:22:38;;;;;;;12.75;3.78;;;;;;;;;;5105455;28;20028;-54
2021/03/21 15:25:03;;;;;;;12.07;3.58;;;;;;;;;;5105390;28;20028;-52